createdAt,value
2018-12-14T00:00:11.205Z,99711.87
2018-12-14T00:02:40.472Z,99708.41
2018-12-14T00:05:08.841Z,99711.23
2018-12-14T00:07:42.284Z,99712.61
2018-12-14T00:10:10.589Z,99711.85
2018-12-14T00:12:38.645Z,99703.23
2018-12-14T00:15:07.725Z,99699.06
2018-12-14T00:17:35.823Z,99700.62
2018-12-14T00:20:07.150Z,99700.55
2018-12-14T00:22:35.222Z,99702.63
2018-12-14T00:25:04.009Z,99699.62
2018-12-14T00:27:32.195Z,99694.65
2018-12-14T00:30:00.424Z,99694.00
2018-12-14T00:32:28.875Z,99699.62
2018-12-14T00:34:57.024Z,99700.67
2018-12-14T00:37:25.231Z,99698.23
2018-12-14T00:39:53.456Z,99702.92
2018-12-14T00:42:21.495Z,99703.41
2018-12-14T00:44:49.660Z,99709.27
2018-12-14T00:47:18.192Z,99706.75
2018-12-14T00:49:46.321Z,99709.91
2018-12-14T00:52:14.431Z,99709.42
2018-12-14T00:54:42.589Z,99709.65
2018-12-14T00:57:16.102Z,99719.37
2018-12-14T00:59:44.317Z,99719.59
2018-12-14T01:02:18.080Z,99723.88
2018-12-14T01:04:46.115Z,99721.91
2018-12-14T01:07:14.252Z,99727.74
2018-12-14T01:09:42.472Z,99728.23
2018-12-14T01:12:11.209Z,99728.34
2018-12-14T01:14:39.531Z,99733.28
2018-12-14T01:17:07.778Z,99741.42
2018-12-14T01:19:35.975Z,99738.28
2018-12-14T01:22:04.137Z,99740.36
2018-12-14T01:24:32.314Z,99740.81
2018-12-14T01:27:00.543Z,99743.06
2018-12-14T01:29:28.730Z,99743.47
2018-12-14T01:31:56.854Z,99742.87
2018-12-14T01:34:24.998Z,99747.09
2018-12-14T01:36:53.177Z,99740.88
2018-12-14T01:39:21.238Z,99740.71
2018-12-14T01:41:49.511Z,99746.39
2018-12-14T01:44:17.709Z,99746.88
2018-12-14T01:46:45.957Z,99747.53
2018-12-14T01:49:14.151Z,99746.36
2018-12-14T01:51:42.303Z,99746.58
2018-12-14T01:54:10.444Z,99742.91
2018-12-14T01:56:38.629Z,99736.73
2018-12-14T01:59:06.839Z,99739.61
2018-12-14T02:01:35.029Z,99737.48
2018-12-14T02:04:03.132Z,99728.02
2018-12-14T02:06:31.545Z,99729.88
2018-12-14T02:08:59.605Z,99729.39
2018-12-14T02:11:27.779Z,99732.60
2018-12-14T02:13:55.817Z,99732.59
2018-12-14T02:16:24.153Z,99731.17
2018-12-14T02:18:52.219Z,99729.49
2018-12-14T02:21:20.267Z,99723.27
2018-12-14T02:23:48.381Z,99727.98
2018-12-14T02:26:16.760Z,99724.51
2018-12-14T02:28:44.931Z,99722.05
2018-12-14T02:31:13.037Z,99720.45
2018-12-14T02:33:41.121Z,99719.00
2018-12-14T02:36:09.163Z,99714.38
2018-12-14T02:38:37.351Z,99717.45
2018-12-14T02:41:05.415Z,99719.86
2018-12-14T02:43:33.729Z,99721.26
2018-12-14T02:46:01.974Z,99716.50
2018-12-14T02:48:30.127Z,99721.42
2018-12-14T02:50:58.430Z,99718.59
2018-12-14T02:53:26.546Z,99718.83
2018-12-14T02:55:54.713Z,99721.91
2018-12-14T02:58:22.870Z,99724.05
2018-12-14T03:00:51.035Z,99721.91
2018-12-14T03:03:19.095Z,99721.72
2018-12-14T03:05:47.226Z,99722.77
2018-12-14T03:08:15.434Z,99722.95
2018-12-14T03:10:43.557Z,99725.03
2018-12-14T03:13:12.250Z,99723.73
2018-12-14T03:15:40.534Z,99720.73
2018-12-14T03:18:08.816Z,99719.47
2018-12-14T03:20:36.992Z,99719.44
2018-12-14T03:23:05.224Z,99721.63
2018-12-14T03:25:33.432Z,99725.35
2018-12-14T03:28:01.528Z,99720.35
2018-12-14T03:30:29.604Z,99715.81
2018-12-14T03:32:57.974Z,99714.62
2018-12-14T03:35:27.633Z,99712.45
2018-12-14T03:37:55.764Z,99718.67
2018-12-14T03:40:23.922Z,99718.45
2018-12-14T03:42:52.071Z,99715.73
2018-12-14T03:45:25.139Z,99721.05
2018-12-14T03:47:53.257Z,99723.86
2018-12-14T03:50:21.413Z,99718.52
2018-12-14T03:52:49.530Z,99720.05
2018-12-14T03:57:42.937Z,99726.31
2018-12-14T04:00:11.112Z,99726.80
2018-12-14T04:02:39.280Z,99719.80
2018-12-14T04:05:07.457Z,99719.53
2018-12-14T04:07:35.554Z,99722.45
2018-12-14T04:10:04.766Z,99722.26
2018-12-14T04:12:32.886Z,99722.98
2018-12-14T04:15:01.304Z,99731.58
2018-12-14T04:17:29.469Z,99731.25
2018-12-14T04:19:57.574Z,99730.34
2018-12-14T04:22:25.748Z,99733.87
2018-12-14T04:24:54.535Z,99734.55
2018-12-14T04:27:23.098Z,99738.47
2018-12-14T04:29:51.216Z,99736.36
2018-12-14T04:32:19.393Z,99740.28
2018-12-14T04:34:47.444Z,99740.31
2018-12-14T04:37:15.582Z,99737.37
2018-12-14T04:39:43.682Z,99734.74
2018-12-14T04:42:11.819Z,99737.37
2018-12-14T04:44:46.726Z,99736.26
2018-12-14T04:47:20.480Z,99739.05
2018-12-14T04:49:48.859Z,99740.73
2018-12-14T04:52:16.942Z,99745.19
2018-12-14T04:54:49.341Z,99741.27
2018-12-14T04:57:17.410Z,99740.50
2018-12-14T04:59:45.624Z,99741.05
2018-12-14T05:02:13.995Z,99741.05
2018-12-14T05:04:42.134Z,99737.81
2018-12-14T05:07:15.241Z,99748.38
2018-12-14T05:09:43.488Z,99743.94
2018-12-14T05:12:11.528Z,99743.20
2018-12-14T05:14:39.919Z,99742.07
2018-12-14T05:17:14.394Z,99745.89
2018-12-14T05:19:42.522Z,99749.00
2018-12-14T05:22:10.634Z,99740.92
2018-12-14T05:24:38.756Z,99747.56
2018-12-14T05:27:07.513Z,99745.89
2018-12-14T05:29:35.795Z,99745.52
2018-12-14T05:32:03.901Z,99741.00
2018-12-14T05:34:32.149Z,99740.81
2018-12-14T05:37:05.505Z,99745.16
2018-12-14T05:39:33.650Z,99746.52
2018-12-14T05:42:01.781Z,99746.20
2018-12-14T05:44:29.970Z,99749.37
2018-12-14T05:47:03.139Z,99744.37
2018-12-14T05:49:31.367Z,99742.26
2018-12-14T05:51:59.511Z,99744.30
2018-12-14T05:54:27.651Z,99739.41
2018-12-14T05:56:56.185Z,99741.09
2018-12-14T05:59:24.330Z,99739.05
2018-12-14T06:01:52.507Z,99735.91
2018-12-14T06:04:20.633Z,99738.98
2018-12-14T06:06:49.013Z,99736.71
2018-12-14T06:09:17.395Z,99741.25
2018-12-14T06:11:45.520Z,99741.84
2018-12-14T06:14:16.901Z,99739.22
2018-12-14T06:16:45.194Z,99744.17
2018-12-14T06:19:13.455Z,99742.09
2018-12-14T06:21:41.617Z,99744.75
2018-12-14T06:24:09.721Z,99747.38
2018-12-14T06:26:43.025Z,99754.83
2018-12-14T06:29:20.664Z,99760.02
2018-12-14T06:31:52.472Z,99762.47
2018-12-14T06:34:20.560Z,99757.17
2018-12-14T06:36:49.092Z,99767.11
2018-12-14T06:39:17.468Z,99769.91
2018-12-14T06:41:45.904Z,99767.72
2018-12-14T06:44:14.040Z,99774.02
2018-12-14T06:46:42.706Z,99776.77
2018-12-14T06:49:10.927Z,99774.34
2018-12-14T06:51:39.027Z,99781.02
2018-12-14T06:54:07.153Z,99783.84
2018-12-14T06:56:35.280Z,99787.58
2018-12-14T06:59:03.618Z,99784.17
2018-12-14T07:01:31.764Z,99790.84
2018-12-14T07:03:59.890Z,99796.22
2018-12-14T07:06:28.065Z,99793.36
2018-12-14T07:08:56.132Z,99800.23
2018-12-14T07:11:24.278Z,99805.16
2018-12-14T07:13:52.366Z,99806.12
2018-12-14T07:16:20.548Z,99809.94
2018-12-14T07:18:48.736Z,99806.69
2018-12-14T07:21:16.958Z,99813.11
2018-12-14T07:23:45.400Z,99810.52
2018-12-14T07:26:13.556Z,99819.28
2018-12-14T07:28:41.680Z,99816.84
2018-12-14T07:31:09.890Z,99825.05
2018-12-14T07:33:37.958Z,99819.80
2018-12-14T07:36:05.989Z,99827.88
2018-12-14T07:38:34.080Z,99831.45
2018-12-14T07:41:02.132Z,99837.97
2018-12-14T07:43:30.188Z,99837.13
2018-12-14T07:45:58.344Z,99839.72
2018-12-14T07:48:26.745Z,99840.30
2018-12-14T07:50:54.799Z,99838.16
2018-12-14T07:53:22.875Z,99843.80
2018-12-14T07:55:51.012Z,99847.20
2018-12-14T07:58:19.108Z,99842.73
2018-12-14T08:00:47.261Z,99847.70
2018-12-14T08:03:15.407Z,99847.77
2018-12-14T08:05:43.673Z,99848.99
2018-12-14T08:08:11.717Z,99854.58
2018-12-14T08:10:39.933Z,99863.83
2018-12-14T08:13:08.512Z,99857.15
2018-12-14T08:15:36.820Z,99859.91
2018-12-14T08:18:04.981Z,99862.70
2018-12-14T08:20:33.436Z,99861.48
2018-12-14T08:23:02.120Z,99862.52
2018-12-14T08:25:30.438Z,99868.20
2018-12-14T08:27:58.565Z,99873.94
2018-12-14T08:30:26.743Z,99876.48
2018-12-14T08:32:54.836Z,99873.28
2018-12-14T08:35:23.010Z,99876.05
2018-12-14T08:37:51.154Z,99877.19
2018-12-14T08:40:19.392Z,99878.81
2018-12-14T08:42:47.625Z,99881.83
2018-12-14T08:45:16.827Z,99883.61
2018-12-14T08:47:45.301Z,99886.20
2018-12-14T08:50:13.476Z,99890.53
2018-12-14T08:52:42.043Z,99897.45
2018-12-14T08:55:10.337Z,99904.72
2018-12-14T08:57:38.458Z,99901.80
2018-12-14T09:00:07.161Z,99904.86
2018-12-14T09:02:35.240Z,99908.49
2018-12-14T09:05:03.539Z,99908.39
2018-12-14T09:07:31.756Z,99913.00
2018-12-14T09:09:59.848Z,99914.44
2018-12-14T09:12:27.943Z,99915.08
2018-12-14T09:14:56.074Z,99923.94
2018-12-14T09:17:24.209Z,99924.09
2018-12-14T09:19:52.709Z,99925.42
2018-12-14T09:22:20.761Z,99926.33
2018-12-14T09:24:48.771Z,99922.30
2018-12-14T09:27:16.926Z,99921.84
2018-12-14T09:29:45.128Z,99924.99
2018-12-14T09:32:13.298Z,99926.19
2018-12-14T09:34:41.601Z,99929.95
2018-12-14T09:37:09.753Z,99933.69
2018-12-14T09:39:37.864Z,99931.89
2018-12-14T09:42:06.047Z,99931.39
2018-12-14T09:44:34.203Z,99935.38
2018-12-14T09:47:02.628Z,99939.95
2018-12-14T09:49:30.866Z,99943.02
2018-12-14T09:51:58.957Z,99942.27
2018-12-14T09:54:27.069Z,99946.12
2018-12-14T09:56:55.257Z,99946.03
2018-12-14T09:59:23.342Z,99942.04
2018-12-14T10:01:51.505Z,99940.28
2018-12-14T10:04:19.597Z,99942.35
2018-12-14T10:06:52.783Z,99938.19
2018-12-14T10:09:20.874Z,99940.00
2018-12-14T10:11:54.923Z,99939.87
2018-12-14T10:14:19.271Z,99944.06
2018-12-14T10:16:47.375Z,99944.06
2018-12-14T10:19:15.913Z,99943.44
2018-12-14T10:21:44.040Z,99936.24
2018-12-14T10:24:12.105Z,99946.34
2018-12-14T10:26:40.373Z,99942.57
2018-12-14T10:29:08.514Z,99940.28
2018-12-14T10:31:36.684Z,99941.35
2018-12-14T10:34:05.003Z,99940.98
2018-12-14T10:36:33.336Z,99941.02
2018-12-14T10:39:01.559Z,99942.94
2018-12-14T10:41:29.808Z,99936.66
2018-12-14T10:43:58.076Z,99936.54
2018-12-14T10:46:26.448Z,99939.37
2018-12-14T10:48:54.549Z,99938.73
2018-12-14T10:51:22.732Z,99937.63
2018-12-14T10:53:50.900Z,99931.91
2018-12-14T10:56:19.357Z,99939.16
2018-12-14T10:58:47.526Z,99929.34
2018-12-14T11:01:21.429Z,99933.72
2018-12-14T11:03:49.608Z,99929.78
2018-12-14T11:06:18.452Z,99927.96
2018-12-14T11:08:47.448Z,99932.14
2018-12-14T11:11:15.602Z,99930.03
2018-12-14T11:13:43.851Z,99937.72
2018-12-14T11:16:11.953Z,99929.90
2018-12-14T11:18:40.051Z,99928.50
2018-12-14T11:21:08.189Z,99935.09
2018-12-14T11:23:36.355Z,99935.11
2018-12-14T11:26:04.507Z,99934.03
2018-12-14T11:28:32.600Z,99941.92
2018-12-14T11:31:00.797Z,99937.91
2018-12-14T11:33:28.957Z,99935.88
2018-12-14T11:35:57.130Z,99939.22
2018-12-14T11:38:25.292Z,99938.61
2018-12-14T11:40:53.509Z,99941.66
2018-12-14T11:43:21.649Z,99947.52
2018-12-14T11:45:49.878Z,99942.97
2018-12-14T11:48:17.957Z,99943.91
2018-12-14T11:50:46.720Z,99946.76
2018-12-14T11:53:19.262Z,99945.22
2018-12-14T11:55:47.570Z,99951.33
2018-12-14T11:58:15.928Z,99951.61
2018-12-14T12:00:44.225Z,99948.05
2018-12-14T12:03:12.400Z,99945.26
2018-12-14T12:05:40.903Z,99944.58
2018-12-14T12:08:12.066Z,99941.49
2018-12-14T12:10:40.243Z,99942.23
2018-12-14T12:13:14.512Z,99940.25
2018-12-14T12:15:42.670Z,99940.27
2018-12-14T12:18:10.839Z,99937.74
2018-12-14T12:20:39.027Z,99939.39
2018-12-14T12:23:07.178Z,99943.28
2018-12-14T12:25:35.501Z,99939.91
2018-12-14T12:28:03.566Z,99938.33
2018-12-14T12:30:31.627Z,99935.22
2018-12-14T12:32:59.780Z,99885.82
2018-12-14T12:35:28.085Z,99930.73
2018-12-14T12:37:56.502Z,99925.25
2018-12-14T12:40:24.655Z,99923.14
2018-12-14T12:42:52.778Z,99931.16
2018-12-14T12:45:21.064Z,99929.37
2018-12-14T12:47:49.091Z,99924.94
2018-12-14T12:50:17.225Z,99926.31
2018-12-14T12:52:45.399Z,99927.91
2018-12-14T12:55:13.626Z,99932.94
2018-12-14T12:57:41.823Z,99934.16
2018-12-14T13:00:10.130Z,99930.98
2018-12-14T13:02:38.275Z,99931.98
2018-12-14T13:05:06.605Z,99926.52
2018-12-14T13:07:34.863Z,99933.66
2018-12-14T13:10:03.227Z,99932.23
2018-12-14T13:12:31.284Z,99932.97
2018-12-14T13:14:59.426Z,99930.85
2018-12-14T13:17:27.586Z,99926.44
2018-12-14T13:19:55.797Z,99930.14
2018-12-14T13:22:23.963Z,99936.70
2018-12-14T13:24:52.036Z,99937.56
2018-12-14T13:27:20.551Z,99939.92
2018-12-14T13:29:48.807Z,99937.70
2018-12-14T13:32:17.049Z,99939.74
2018-12-14T13:34:45.236Z,99933.16
2018-12-14T13:37:13.598Z,99941.92
2018-12-14T13:39:42.776Z,99943.77
2018-12-14T13:42:10.994Z,99942.95
2018-12-14T13:44:39.748Z,99945.71
2018-12-14T13:47:13.336Z,99951.98
2018-12-14T13:49:41.598Z,99943.39
2018-12-14T13:52:09.860Z,99950.27
2018-12-14T13:54:38.003Z,99957.08
2018-12-14T13:57:06.080Z,99955.13
2018-12-14T14:01:59.508Z,99960.02
2018-12-14T14:04:27.637Z,99963.97
2018-12-14T14:06:55.985Z,99965.08
2018-12-14T14:09:24.518Z,99973.45
2018-12-14T14:11:52.668Z,99978.91
2018-12-14T14:14:20.859Z,99981.98
2018-12-14T14:16:50.239Z,99981.63
2018-12-14T14:19:18.349Z,99992.05
2018-12-14T14:21:46.437Z,99993.44
2018-12-14T14:24:14.527Z,99994.44
2018-12-14T14:26:44.613Z,99995.52
2018-12-14T14:29:13.924Z,100000.29
2018-12-14T14:31:42.140Z,99994.64
2018-12-14T14:34:10.232Z,99998.05
2018-12-14T14:36:38.648Z,100004.93
2018-12-14T14:39:07.346Z,100001.68
2018-12-14T14:41:35.588Z,100004.25
2018-12-14T14:44:03.672Z,100011.45
2018-12-14T14:46:31.799Z,100005.70
2018-12-14T14:48:59.937Z,100006.33
2018-12-14T14:51:28.462Z,100009.47
2018-12-14T14:53:56.650Z,100010.70
2018-12-14T14:56:25.320Z,100005.70
2018-12-14T14:58:53.462Z,100008.44
2018-12-14T15:01:21.637Z,100014.17
2018-12-14T15:03:49.844Z,100019.79
2018-12-14T15:06:18.277Z,100015.61
2018-12-14T15:08:46.493Z,100019.23
2018-12-14T15:11:14.612Z,100017.55
2018-12-14T15:13:42.763Z,100025.08
2018-12-14T15:16:11.236Z,100020.08
2018-12-14T15:18:40.032Z,100027.89
2018-12-14T15:21:08.150Z,100027.70
2018-12-14T15:23:36.204Z,100028.77
2018-12-14T15:26:04.535Z,100032.27
2018-12-14T15:28:32.644Z,100032.40
2018-12-14T15:31:00.894Z,100041.55
2018-12-14T15:33:29.195Z,100040.28
2018-12-14T15:35:57.242Z,100046.25
2018-12-14T15:38:25.329Z,100044.80
2018-12-14T15:40:54.269Z,100052.45
2018-12-14T15:43:22.432Z,100052.22
2018-12-14T15:45:50.617Z,100050.77
2018-12-14T15:48:18.723Z,100053.76
2018-12-14T15:50:46.789Z,100056.48
2018-12-14T15:53:14.941Z,100060.98
2018-12-14T15:55:43.075Z,100061.70
2018-12-14T15:58:11.270Z,100065.30
2018-12-14T16:00:40.320Z,100063.33
2018-12-14T16:03:08.631Z,100064.91
2018-12-14T16:05:37.006Z,100067.77
2018-12-14T16:08:05.193Z,100068.67
2018-12-14T16:10:34.064Z,100073.48
2018-12-14T16:13:02.278Z,100077.41
2018-12-14T16:15:30.673Z,100082.14
2018-12-14T16:17:58.912Z,100075.56
2018-12-14T16:20:27.113Z,100077.44
2018-12-14T16:22:55.398Z,100078.50
2018-12-14T16:25:24.004Z,100078.57
2018-12-14T16:27:52.109Z,100080.29
2018-12-14T16:30:20.314Z,100083.86
2018-12-14T16:32:49.110Z,100087.33
2018-12-14T16:35:17.750Z,100087.50
2018-12-14T16:37:45.927Z,100091.33
2018-12-14T16:40:14.105Z,100094.22
2018-12-14T16:42:42.330Z,100093.18
2018-12-14T16:45:12.975Z,100091.00
2018-12-14T16:47:41.138Z,100094.70
2018-12-14T16:50:10.401Z,100094.41
2018-12-14T16:52:38.615Z,100099.53
2018-12-14T16:55:08.044Z,100099.88
2018-12-14T16:57:36.296Z,100098.09
2018-12-14T17:00:05.578Z,100103.12
2018-12-14T17:02:33.834Z,100102.05
2018-12-14T17:05:02.012Z,100103.62
2018-12-14T17:07:30.177Z,100097.58
2018-12-14T17:09:58.395Z,100097.31
2018-12-14T17:12:26.730Z,100100.43
2018-12-14T17:14:54.867Z,100101.53
2018-12-14T17:17:23.075Z,100098.97
2018-12-14T17:19:51.310Z,100096.80
2018-12-14T17:22:19.468Z,100088.77
2018-12-14T17:24:47.742Z,100090.59
2018-12-14T17:27:15.977Z,100088.32
2018-12-14T17:29:45.631Z,100085.50
2018-12-14T17:32:14.031Z,100090.07
2018-12-14T17:34:42.270Z,100045.62
2018-12-14T17:37:10.469Z,100093.45
2018-12-14T17:39:38.618Z,100090.54
2018-12-14T17:42:06.757Z,100093.23
2018-12-14T17:44:35.003Z,100092.91
2018-12-14T17:47:03.210Z,100090.31
2018-12-14T17:49:31.490Z,100097.97
2018-12-14T17:51:59.835Z,100097.77
2018-12-14T17:54:28.020Z,100100.08
2018-12-14T17:56:56.183Z,100103.84
2018-12-14T17:59:24.329Z,100107.85
2018-12-14T18:01:52.559Z,100106.73
2018-12-14T18:04:20.800Z,100115.21
2018-12-14T18:06:49.041Z,100117.31
2018-12-14T18:09:17.188Z,100119.03
2018-12-14T18:11:45.305Z,100121.56
2018-12-14T18:14:13.559Z,100124.59
2018-12-14T18:16:41.733Z,100129.26
2018-12-14T18:19:10.101Z,100135.97
2018-12-14T18:21:38.526Z,100140.41
2018-12-14T18:24:07.232Z,100145.02
2018-12-14T18:26:35.472Z,100151.54
2018-12-14T18:29:03.750Z,100144.95
2018-12-14T18:31:32.932Z,100146.59
2018-12-14T18:34:01.082Z,100146.59
2018-12-14T18:36:29.345Z,100155.77
2018-12-14T18:38:57.610Z,100157.16
2018-12-14T18:41:25.860Z,100159.10
2018-12-14T18:43:53.984Z,100157.69
2018-12-14T18:46:22.084Z,100163.38
2018-12-14T18:48:50.299Z,100160.76
2018-12-14T18:51:18.415Z,100163.83
2018-12-14T18:53:51.602Z,100167.62
2018-12-14T18:56:19.744Z,100166.72
2018-12-14T18:58:47.946Z,100168.78
2018-12-14T19:01:16.204Z,100170.11
2018-12-14T19:03:44.374Z,100175.69
2018-12-14T19:06:12.682Z,100175.84
2018-12-14T19:08:40.969Z,100181.81
2018-12-14T19:11:09.347Z,100183.94
2018-12-14T19:13:37.604Z,100184.36
2018-12-14T19:16:05.884Z,100187.53
2018-12-14T19:18:34.499Z,100184.70
2018-12-14T19:21:02.778Z,100186.22
2018-12-14T19:23:32.315Z,100186.86
2018-12-14T19:26:00.531Z,100185.71
2018-12-14T19:28:28.833Z,100185.66
2018-12-14T19:30:56.972Z,100192.34
2018-12-14T19:33:25.082Z,100192.47
2018-12-14T19:35:53.258Z,100192.63
2018-12-14T19:38:21.549Z,100202.41
2018-12-14T19:40:49.673Z,100201.48
2018-12-14T19:43:17.850Z,100199.86
2018-12-14T19:45:46.127Z,100207.55
2018-12-14T19:48:14.298Z,100212.13
2018-12-14T19:50:42.472Z,100210.89
2018-12-14T19:53:10.780Z,100211.25
2018-12-14T19:55:39.025Z,100213.87
2018-12-14T19:58:07.276Z,100216.50
2018-12-14T20:00:35.456Z,100219.79
2018-12-14T20:03:03.767Z,100222.77
2018-12-14T20:05:31.929Z,100219.94
2018-12-14T20:08:00.099Z,100219.36
2018-12-14T20:10:28.377Z,100222.70
2018-12-14T20:12:56.582Z,100224.42
2018-12-14T20:15:24.805Z,100224.94
2018-12-14T20:17:53.026Z,100228.66
2018-12-14T20:20:21.411Z,100225.34
2018-12-14T20:22:50.676Z,100230.80
2018-12-14T20:25:18.881Z,100221.93
2018-12-14T20:27:47.045Z,100223.01
2018-12-14T20:30:15.251Z,100224.49
2018-12-14T20:32:43.482Z,100228.91
2018-12-14T20:35:11.988Z,100229.52
2018-12-14T20:37:40.248Z,100182.87
2018-12-14T20:40:08.725Z,100230.17
2018-12-14T20:42:37.033Z,100227.45
2018-12-14T20:45:06.370Z,100230.69
2018-12-14T20:47:34.590Z,100232.77
2018-12-14T20:50:02.813Z,100231.91
2018-12-14T20:52:31.349Z,100231.59
2018-12-14T21:09:43.006Z,100242.16
2018-12-14T21:12:17.012Z,100243.67
2018-12-14T21:14:50.662Z,100240.58
2018-12-14T21:17:15.553Z,100242.92
2018-12-14T21:19:44.760Z,100244.66
2018-12-14T21:22:13.300Z,100247.20
2018-12-14T21:24:41.508Z,100245.88
2018-12-14T21:27:09.730Z,100243.96
2018-12-14T21:29:38.029Z,100241.42
2018-12-14T21:32:06.301Z,100239.86
2018-12-14T21:34:34.424Z,100237.11
2018-12-14T21:37:03.444Z,100245.22
2018-12-14T21:39:31.656Z,100240.09
2018-12-14T21:41:59.900Z,100238.70
2018-12-14T21:47:06.320Z,100239.33
2018-12-14T21:49:34.505Z,100240.79
2018-12-14T21:52:02.633Z,100199.94
2018-12-14T21:54:30.877Z,100243.02
2018-12-14T21:56:59.003Z,100239.39
2018-12-14T21:59:27.178Z,100236.76
2018-12-14T22:01:55.392Z,100237.70
2018-12-14T22:04:23.631Z,100239.41
2018-12-14T22:06:51.813Z,100237.88
2018-12-14T22:09:20.006Z,100233.83
2018-12-14T22:11:48.229Z,100235.94
2018-12-14T22:14:16.466Z,100235.50
2018-12-14T22:16:44.563Z,100240.20
2018-12-14T22:19:12.801Z,100237.41
2018-12-14T22:21:40.992Z,100243.20
2018-12-14T22:24:09.161Z,100241.72
2018-12-14T22:26:37.334Z,100241.39
2018-12-14T22:29:05.514Z,100244.92
2018-12-14T22:31:33.743Z,100245.08
2018-12-14T22:34:01.847Z,100242.92
2018-12-14T22:36:30.037Z,100239.57
2018-12-14T22:38:58.404Z,100239.12
2018-12-14T22:41:26.548Z,100238.38
2018-12-14T22:43:54.733Z,100233.77
2018-12-14T22:46:23.824Z,100232.44
2018-12-14T22:48:52.301Z,100236.36
2018-12-14T22:51:20.496Z,100229.78
2018-12-14T22:53:48.886Z,100230.15
2018-12-14T22:56:17.063Z,100230.27
2018-12-14T22:58:45.437Z,100233.12
2018-12-14T23:01:13.712Z,100233.35
2018-12-14T23:03:41.870Z,100232.70
2018-12-14T23:06:10.095Z,100236.13
2018-12-14T23:08:47.699Z,100234.95
2018-12-14T23:11:15.896Z,100236.54
2018-12-14T23:13:44.059Z,100234.63
2018-12-14T23:16:14.508Z,100236.48
2018-12-14T23:18:47.669Z,100235.01
2018-12-14T23:21:15.963Z,100232.33
2018-12-14T23:23:44.103Z,100233.61
2018-12-14T23:26:12.380Z,100231.17
2018-12-14T23:28:40.725Z,100231.17
2018-12-14T23:31:08.942Z,100235.12
2018-12-14T23:33:37.157Z,100235.53
2018-12-14T23:36:05.330Z,100232.33
2018-12-14T23:38:33.482Z,100233.98
2018-12-14T23:41:01.530Z,100233.70
2018-12-14T23:43:29.627Z,100236.87
2018-12-14T23:45:57.720Z,100231.77
2018-12-14T23:48:35.494Z,100231.55
2018-12-14T23:51:03.803Z,100236.14
2018-12-14T23:53:31.915Z,100232.73
2018-12-14T23:56:00.022Z,100230.89
2018-12-14T23:58:28.271Z,100231.66
